createdAt,value
2018-11-03T00:00:40.886Z,2.50
2018-11-03T00:03:08.261Z,2.50
2018-11-03T00:05:35.560Z,2.60
2018-11-03T00:08:02.857Z,2.60
2018-11-03T00:10:30.196Z,2.50
2018-11-03T00:13:02.245Z,2.60
2018-11-03T00:15:29.602Z,2.60
2018-11-03T00:18:04.584Z,2.50
2018-11-03T00:20:31.918Z,2.50
2018-11-03T00:22:59.979Z,2.50
2018-11-03T00:25:37.273Z,2.50
2018-11-03T00:28:05.403Z,2.60
2018-11-03T00:30:33.449Z,2.60
2018-11-03T00:33:07.344Z,2.60
2018-11-03T00:35:34.618Z,2.60
2018-11-03T00:43:49.849Z,2.60
2018-11-03T00:46:16.924Z,2.50
2018-11-03T00:48:43.929Z,2.50
2018-11-03T00:51:10.940Z,2.40
2018-11-03T00:53:37.922Z,2.40
2018-11-03T00:56:04.969Z,2.50
2018-11-03T00:58:32.011Z,2.50
2018-11-03T01:00:59.101Z,2.50
2018-11-03T01:03:26.205Z,2.50
2018-11-03T01:05:53.391Z,2.50
2018-11-03T01:08:20.512Z,2.50
2018-11-03T01:10:47.481Z,2.50
2018-11-03T01:13:14.790Z,2.50
2018-11-03T01:15:42.448Z,2.60
2018-11-03T01:18:09.424Z,2.60
2018-11-03T01:20:37.926Z,2.60
2018-11-03T01:23:05.094Z,2.60
2018-11-03T01:25:32.198Z,2.60
2018-11-03T01:27:59.755Z,2.60
2018-11-03T01:30:27.095Z,2.60
2018-11-03T01:32:54.304Z,2.60
2018-11-03T01:35:27.933Z,2.60
2018-11-03T01:37:54.957Z,2.60
2018-11-03T01:40:21.975Z,2.60
2018-11-03T01:42:49.031Z,2.60
2018-11-03T01:45:16.048Z,2.50
2018-11-03T01:50:16.109Z,2.50
2018-11-03T01:52:43.151Z,2.50
2018-11-03T01:55:10.135Z,2.60
2018-11-03T01:57:37.762Z,2.60
2018-11-03T02:00:05.228Z,2.60
2018-11-03T02:05:10.118Z,2.60
2018-11-03T02:07:37.108Z,2.60
2018-11-03T02:10:12.107Z,2.60
2018-11-03T02:12:39.261Z,2.60
2018-11-03T02:15:06.286Z,2.60
2018-11-03T02:17:39.998Z,2.60
2018-11-03T02:20:07.552Z,2.60
2018-11-03T02:22:34.633Z,2.50
2018-11-03T02:25:08.005Z,2.60
2018-11-03T02:27:35.103Z,2.60
2018-11-03T02:30:02.136Z,2.60
2018-11-03T02:32:35.717Z,2.60
2018-11-03T02:35:02.799Z,2.60
2018-11-03T02:37:29.805Z,2.50
2018-11-03T02:40:07.605Z,2.50
2018-11-03T02:48:26.836Z,2.40
2018-11-03T02:50:54.014Z,2.30
2018-11-03T02:53:22.760Z,2.30
2018-11-03T02:55:51.051Z,2.30
2018-11-03T02:58:18.817Z,2.30
2018-11-03T03:00:45.850Z,2.30
2018-11-03T03:05:46.467Z,2.40
2018-11-03T03:08:13.465Z,2.30
2018-11-03T03:13:13.684Z,2.30
2018-11-03T03:15:40.722Z,2.30
2018-11-03T03:23:57.805Z,2.20
2018-11-03T03:26:25.161Z,2.20
2018-11-03T03:28:52.305Z,2.20
2018-11-03T03:31:26.485Z,2.20
2018-11-03T03:33:53.516Z,2.20
2018-11-03T03:36:21.644Z,2.20
2018-11-03T03:38:59.344Z,2.20
2018-11-03T03:41:26.797Z,2.10
2018-11-03T03:43:53.893Z,2.10
2018-11-03T03:46:25.028Z,2.20
2018-11-03T03:48:52.017Z,2.10
2018-11-03T03:51:19.048Z,2.10
2018-11-03T03:53:52.180Z,2.10
2018-11-03T03:56:19.163Z,2.10
2018-11-03T03:58:46.188Z,2.10
2018-11-03T04:01:20.466Z,2.00
2018-11-03T04:03:47.478Z,2.00
2018-11-03T04:06:14.600Z,1.90
2018-11-03T04:08:48.925Z,1.90
2018-11-03T04:11:16.061Z,1.90
2018-11-03T04:13:43.097Z,1.90
2018-11-03T04:16:16.637Z,1.90
2018-11-03T04:18:43.609Z,1.90
2018-11-03T04:21:15.174Z,1.90
2018-11-03T04:23:45.632Z,1.90
2018-11-03T04:26:12.653Z,1.90
2018-11-03T04:28:39.659Z,1.90
2018-11-03T04:31:13.023Z,1.90
2018-11-03T04:33:40.317Z,1.90
2018-11-03T04:36:07.300Z,1.90
2018-11-03T04:38:40.952Z,1.90
2018-11-03T04:41:07.968Z,1.90
2018-11-03T04:43:34.962Z,1.90
2018-11-03T04:46:09.185Z,1.90
2018-11-03T04:48:36.414Z,2.00
2018-11-03T04:51:03.417Z,2.00
2018-11-03T04:53:30.687Z,2.00
2018-11-03T04:55:57.706Z,2.00
2018-11-03T04:58:30.833Z,2.00
2018-11-03T05:00:57.987Z,1.90
2018-11-03T05:03:25.216Z,1.90
2018-11-03T05:06:02.371Z,1.80
2018-11-03T05:08:29.473Z,1.80
2018-11-03T05:10:56.466Z,1.90
2018-11-03T05:13:26.468Z,1.80
2018-11-03T05:15:53.494Z,1.80
2018-11-03T05:18:20.526Z,1.70
2018-11-03T05:20:54.545Z,1.70
2018-11-03T05:23:21.612Z,1.70
2018-11-03T05:25:48.648Z,1.70
2018-11-03T05:28:24.624Z,1.70
2018-11-03T05:30:51.609Z,1.70
2018-11-03T05:33:18.617Z,1.70
2018-11-03T05:35:52.353Z,1.70
2018-11-03T05:38:19.753Z,1.60
2018-11-03T05:40:46.766Z,1.60
2018-11-03T05:43:18.915Z,1.50
2018-11-03T05:45:45.921Z,1.50
2018-11-03T05:48:12.909Z,1.50
2018-11-03T05:50:46.564Z,1.50
2018-11-03T05:53:13.629Z,1.50
2018-11-03T05:55:41.109Z,1.50
2018-11-03T05:58:16.485Z,1.50
2018-11-03T06:00:43.505Z,1.50
2018-11-03T06:03:10.528Z,1.50
2018-11-03T06:05:45.482Z,1.50
2018-11-03T06:08:12.690Z,1.50
2018-11-03T06:10:39.728Z,1.50
2018-11-03T06:13:10.341Z,1.50
2018-11-03T06:15:37.341Z,1.50
2018-11-03T06:18:04.793Z,1.50
2018-11-03T06:20:38.916Z,1.50
2018-11-03T06:23:05.992Z,1.60
2018-11-03T06:25:32.969Z,1.60
2018-11-03T06:28:06.927Z,1.60
2018-11-03T06:30:33.900Z,1.60
2018-11-03T06:33:00.899Z,1.60
2018-11-03T06:35:34.601Z,1.60
2018-11-03T06:38:01.732Z,1.60
2018-11-03T06:40:29.062Z,1.60
2018-11-03T06:43:02.891Z,1.70
2018-11-03T06:45:29.904Z,1.70
2018-11-03T06:47:56.941Z,1.70
2018-11-03T06:50:31.415Z,1.80
2018-11-03T06:52:58.457Z,1.80
2018-11-03T06:55:25.453Z,1.80
2018-11-03T06:58:01.188Z,1.90
2018-11-03T07:00:28.153Z,1.90
2018-11-03T07:02:55.177Z,2.00
2018-11-03T07:05:29.179Z,2.00
2018-11-03T07:07:56.273Z,2.10
2018-11-03T07:10:23.297Z,2.20
2018-11-03T07:12:56.057Z,2.30
2018-11-03T07:15:22.768Z,2.30
2018-11-03T07:17:49.859Z,2.40
2018-11-03T07:20:24.677Z,2.50
2018-11-03T07:22:52.237Z,2.60
2018-11-03T07:25:20.053Z,2.60
2018-11-03T07:27:52.949Z,2.70
2018-11-03T07:30:19.958Z,2.80
2018-11-03T07:32:47.025Z,2.80
2018-11-03T07:35:20.920Z,2.90
2018-11-03T07:37:47.933Z,2.90
2018-11-03T07:40:14.909Z,3.00
2018-11-03T07:42:49.132Z,3.10
2018-11-03T07:45:16.089Z,3.10
2018-11-03T07:47:43.183Z,3.20
2018-11-03T07:52:57.027Z,3.30
2018-11-03T07:55:24.471Z,3.30
2018-11-03T07:57:51.506Z,3.30
2018-11-03T08:00:18.625Z,3.40
2018-11-03T08:02:45.584Z,3.40
2018-11-03T08:05:12.921Z,3.50
2018-11-03T08:07:40.005Z,3.50
2018-11-03T08:10:07.853Z,3.60
2018-11-03T08:12:41.296Z,3.80
2018-11-03T08:15:09.568Z,3.90
2018-11-03T08:17:36.628Z,3.90
2018-11-03T08:20:10.134Z,4.00
2018-11-03T08:22:37.191Z,4.10
2018-11-03T08:25:04.703Z,4.10
2018-11-03T08:27:36.987Z,4.20
2018-11-03T08:30:04.624Z,4.30
2018-11-03T08:32:31.661Z,4.40
2018-11-03T08:35:05.490Z,4.50
2018-11-03T08:37:32.602Z,4.70
2018-11-03T08:39:59.641Z,4.80
2018-11-03T08:42:32.957Z,5.00
2018-11-03T08:44:59.968Z,5.10
2018-11-03T08:47:26.973Z,5.20
2018-11-03T08:50:00.898Z,5.40
2018-11-03T08:52:27.936Z,5.50
2018-11-03T08:54:54.939Z,5.60
2018-11-03T08:57:21.963Z,5.80
2018-11-03T08:59:49.299Z,6.10
2018-11-03T09:02:16.233Z,6.20
2018-11-03T09:04:43.271Z,6.40
2018-11-03T09:07:16.437Z,6.70
2018-11-03T09:09:48.199Z,6.90
2018-11-03T09:12:15.245Z,7.00
2018-11-03T09:14:42.368Z,7.20
2018-11-03T09:17:09.573Z,7.20
2018-11-03T09:19:47.654Z,7.20
2018-11-03T09:22:14.691Z,7.20
2018-11-03T09:24:41.785Z,7.30
2018-11-03T09:27:08.789Z,7.50
2018-11-03T09:29:35.887Z,7.60
2018-11-03T09:32:07.239Z,7.80
2018-11-03T09:34:34.365Z,8.30
2018-11-03T09:37:01.991Z,9.00
2018-11-03T09:39:29.635Z,9.50
2018-11-03T09:41:56.628Z,9.70
2018-11-03T09:44:23.693Z,10.20
2018-11-03T09:46:50.702Z,10.60
2018-11-03T09:49:17.811Z,10.80
2018-11-03T09:51:44.810Z,10.90
2018-11-03T09:54:11.965Z,10.80
2018-11-03T09:56:39.108Z,10.90
2018-11-03T09:59:06.073Z,10.80
2018-11-03T10:01:41.353Z,10.50
2018-11-03T10:04:08.293Z,10.20
2018-11-03T10:06:35.402Z,9.90
2018-11-03T10:09:02.797Z,9.80
2018-11-03T10:11:29.787Z,9.70
2018-11-03T10:13:58.018Z,9.50
2018-11-03T10:16:25.169Z,9.40
2018-11-03T10:18:52.196Z,9.30
2018-11-03T10:21:26.139Z,9.10
2018-11-03T10:23:53.159Z,9.10
2018-11-03T10:26:20.230Z,8.90
2018-11-03T10:28:47.248Z,8.90
2018-11-03T10:31:14.315Z,8.90
2018-11-03T10:33:47.470Z,8.90
2018-11-03T10:36:14.415Z,9.00
2018-11-03T10:38:41.405Z,9.10
2018-11-03T10:41:16.822Z,9.20
2018-11-03T10:43:43.797Z,9.30
2018-11-03T10:46:10.820Z,9.50
2018-11-03T10:48:44.837Z,9.50
2018-11-03T10:51:12.188Z,9.50
2018-11-03T10:53:39.255Z,9.40
2018-11-03T10:56:11.816Z,9.30
2018-11-03T10:58:38.794Z,9.30
2018-11-03T11:01:11.532Z,9.30
2018-11-03T11:03:46.635Z,9.40
2018-11-03T11:08:57.231Z,9.50
2018-11-03T11:11:29.747Z,9.50
2018-11-03T11:13:56.904Z,9.50
2018-11-03T11:16:23.963Z,9.40
2018-11-03T11:18:51.096Z,9.40
2018-11-03T11:21:26.751Z,9.40
2018-11-03T11:23:53.834Z,9.40
2018-11-03T11:26:20.921Z,9.40
2018-11-03T11:28:52.877Z,9.50
2018-11-03T11:31:19.887Z,9.60
2018-11-03T11:33:46.839Z,9.70
2018-11-03T11:36:21.372Z,9.70
2018-11-03T11:38:48.401Z,9.80
2018-11-03T11:41:15.649Z,9.80
2018-11-03T11:43:49.892Z,9.80
2018-11-03T11:46:16.916Z,9.70
2018-11-03T11:48:43.869Z,9.70
2018-11-03T11:51:11.009Z,9.80
2018-11-03T11:53:38.134Z,9.90
2018-11-03T11:56:05.250Z,9.90
2018-11-03T11:58:41.694Z,10.00
2018-11-03T12:01:08.712Z,10.10
2018-11-03T12:03:35.766Z,10.10
2018-11-03T12:06:02.798Z,10.00
2018-11-03T12:08:29.899Z,10.00
2018-11-03T12:10:57.958Z,9.90
2018-11-03T12:13:25.246Z,9.90
2018-11-03T12:15:52.272Z,9.90
2018-11-03T12:18:19.325Z,9.90
2018-11-03T12:20:46.294Z,10.00
2018-11-03T12:23:13.378Z,10.00
2018-11-03T12:25:40.479Z,10.00
2018-11-03T12:28:07.421Z,10.10
2018-11-03T12:30:40.709Z,10.20
2018-11-03T12:33:07.693Z,10.20
2018-11-03T12:35:34.731Z,10.20
2018-11-03T12:38:08.423Z,10.20
2018-11-03T12:40:35.516Z,10.10
2018-11-03T12:43:02.495Z,10.00
2018-11-03T12:45:36.458Z,10.00
2018-11-03T12:48:03.562Z,9.90
2018-11-03T12:50:30.548Z,9.80
2018-11-03T12:53:03.708Z,9.90
2018-11-03T12:55:30.702Z,9.90
2018-11-03T12:57:57.773Z,9.90
2018-11-03T13:00:32.297Z,9.90
2018-11-03T13:02:59.333Z,10.00
2018-11-03T13:05:26.354Z,10.00
2018-11-03T13:08:00.749Z,10.00
2018-11-03T13:10:27.778Z,10.00
2018-11-03T13:12:55.839Z,10.10
2018-11-03T13:15:27.786Z,10.10
2018-11-03T13:17:54.803Z,10.10
2018-11-03T13:20:21.905Z,10.10
2018-11-03T13:22:56.900Z,10.20
2018-11-03T13:25:23.877Z,10.20
2018-11-03T13:27:50.936Z,10.20
2018-11-03T13:30:24.499Z,10.20
2018-11-03T13:32:51.576Z,10.10
2018-11-03T13:35:19.707Z,10.10
2018-11-03T13:37:46.767Z,10.10
2018-11-03T13:40:22.812Z,10.10
2018-11-03T13:42:49.808Z,10.10
2018-11-03T13:45:16.852Z,10.10
2018-11-03T13:47:50.646Z,10.10
2018-11-03T13:50:17.570Z,10.10
2018-11-03T13:52:46.964Z,10.10
2018-11-03T13:55:17.930Z,10.10
2018-11-03T13:57:45.704Z,10.10
2018-11-03T14:00:14.846Z,10.10
2018-11-03T14:02:49.321Z,10.10
2018-11-03T14:05:16.325Z,10.10
2018-11-03T14:07:43.336Z,10.00
2018-11-03T14:10:15.886Z,10.00
2018-11-03T14:12:43.535Z,10.00
2018-11-03T14:15:12.144Z,9.90
2018-11-03T14:17:43.050Z,9.90
2018-11-03T14:20:11.608Z,9.90
2018-11-03T14:22:38.644Z,9.80
2018-11-03T14:25:12.180Z,9.80
2018-11-03T14:27:39.404Z,9.70
2018-11-03T14:30:06.996Z,9.70
2018-11-03T14:32:38.421Z,9.70
2018-11-03T14:35:05.894Z,9.70
2018-11-03T14:37:33.432Z,9.60
2018-11-03T14:40:08.012Z,9.60
2018-11-03T14:42:35.078Z,9.60
2018-11-03T14:45:02.143Z,9.50
2018-11-03T14:47:34.821Z,9.50
2018-11-03T14:50:03.673Z,9.50
2018-11-03T14:52:31.877Z,9.50
2018-11-03T14:55:02.341Z,9.40
2018-11-03T14:57:29.496Z,9.40
2018-11-03T14:59:56.626Z,9.20
2018-11-03T15:02:30.503Z,9.20
2018-11-03T15:04:57.701Z,9.10
2018-11-03T15:07:24.715Z,9.10
2018-11-03T15:09:58.879Z,9.10
2018-11-03T15:12:25.907Z,9.00
2018-11-03T15:14:52.990Z,9.00
2018-11-03T15:17:26.898Z,8.90
2018-11-03T15:19:53.928Z,8.80
2018-11-03T15:22:21.047Z,8.70
2018-11-03T15:24:54.357Z,8.60
2018-11-03T15:27:21.405Z,8.50
2018-11-03T15:29:48.394Z,8.40
2018-11-03T15:32:23.055Z,8.30
2018-11-03T15:34:50.680Z,8.20
2018-11-03T15:37:17.704Z,8.10
2018-11-03T15:39:51.069Z,8.00
2018-11-03T15:42:18.229Z,7.90
2018-11-03T15:44:45.276Z,7.80
2018-11-03T15:47:19.168Z,7.70
2018-11-03T15:49:46.230Z,7.50
2018-11-03T15:52:13.290Z,7.40
2018-11-03T15:54:40.280Z,7.30
2018-11-03T15:57:07.379Z,7.20
2018-11-03T15:59:34.378Z,7.00
2018-11-03T16:02:01.363Z,6.90
2018-11-03T16:04:28.492Z,6.80
2018-11-03T16:07:01.056Z,6.70
2018-11-03T16:09:28.133Z,6.60
2018-11-03T16:11:55.118Z,6.60
2018-11-03T16:14:28.476Z,6.40
2018-11-03T16:16:55.560Z,6.40
2018-11-03T16:19:22.622Z,6.20
2018-11-03T16:21:49.916Z,6.20
2018-11-03T16:24:17.002Z,6.10
2018-11-03T16:26:43.982Z,6.00
2018-11-03T16:29:19.677Z,5.90
2018-11-03T16:31:46.724Z,5.80
2018-11-03T16:34:13.813Z,5.80
2018-11-03T16:36:51.263Z,5.70
2018-11-03T16:39:18.319Z,5.70
2018-11-03T16:41:45.495Z,5.60
2018-11-03T16:44:24.152Z,5.60
2018-11-03T16:49:47.419Z,5.40
2018-11-03T16:52:14.869Z,5.30
2018-11-03T16:54:46.472Z,5.30
2018-11-03T16:57:14.196Z,5.30
2018-11-03T16:59:41.844Z,5.20
2018-11-03T17:02:19.436Z,5.10
2018-11-03T17:04:47.378Z,5.10
2018-11-03T17:07:15.042Z,5.00
2018-11-03T17:09:42.715Z,5.00
2018-11-03T17:12:10.070Z,5.00
2018-11-03T17:14:37.450Z,4.90
2018-11-03T17:17:05.756Z,4.90
2018-11-03T17:19:47.642Z,4.90
2018-11-03T17:22:15.608Z,4.90
2018-11-03T17:24:42.939Z,4.90
2018-11-03T17:27:19.800Z,4.90
2018-11-03T17:29:47.303Z,4.90
2018-11-03T17:32:14.885Z,4.90
2018-11-03T17:34:55.119Z,4.90
2018-11-03T17:37:22.740Z,4.90
2018-11-03T17:39:50.237Z,5.00
2018-11-03T17:42:17.760Z,5.10
2018-11-03T17:44:45.077Z,5.00
2018-11-03T17:47:12.483Z,5.00
2018-11-03T17:49:40.106Z,5.00
2018-11-03T17:52:12.401Z,5.00
2018-11-03T17:54:39.953Z,5.00
2018-11-03T17:57:07.234Z,5.10
2018-11-03T17:59:45.726Z,5.20
2018-11-03T18:02:13.121Z,5.30
2018-11-03T18:04:40.988Z,5.40
2018-11-03T18:07:16.698Z,5.40
2018-11-03T18:09:45.217Z,5.50
2018-11-03T18:12:12.694Z,5.50
2018-11-03T18:14:48.252Z,5.60
2018-11-03T18:17:15.824Z,5.60
2018-11-03T18:19:43.389Z,5.50
2018-11-03T18:22:25.023Z,5.50
2018-11-03T18:24:52.511Z,5.40
2018-11-03T18:27:19.911Z,5.40
2018-11-03T18:29:47.424Z,5.30
2018-11-03T18:32:14.884Z,5.20
2018-11-03T18:34:42.912Z,5.10
2018-11-03T18:37:10.244Z,5.10
2018-11-03T18:39:52.857Z,5.10
2018-11-03T18:42:20.282Z,5.00
2018-11-03T18:44:47.728Z,5.00
2018-11-03T18:47:22.701Z,5.00
2018-11-03T18:49:50.111Z,4.90
2018-11-03T18:52:17.585Z,4.90
2018-11-03T18:54:45.205Z,4.90
2018-11-03T18:57:13.445Z,4.70
2018-11-03T18:59:46.694Z,4.60
2018-11-03T19:02:18.448Z,4.50
2018-11-03T19:04:46.123Z,4.30
2018-11-03T19:07:26.243Z,4.30
2018-11-03T19:12:37.607Z,4.10
2018-11-03T19:15:05.781Z,4.00
2018-11-03T19:17:33.612Z,3.90
2018-11-03T19:20:01.359Z,3.80
2018-11-03T19:22:28.457Z,3.70
2018-11-03T19:24:55.978Z,3.60
2018-11-03T19:27:23.045Z,3.50
2018-11-03T19:29:50.890Z,3.50
2018-11-03T19:32:17.946Z,3.40
2018-11-03T19:34:45.031Z,3.30
2018-11-03T19:39:45.366Z,3.30
2018-11-03T19:42:12.636Z,3.20
2018-11-03T19:44:39.640Z,3.20
2018-11-03T19:47:06.792Z,3.10
2018-11-03T19:49:33.797Z,3.10
2018-11-03T19:52:00.877Z,3.10
2018-11-03T19:54:27.896Z,3.00
2018-11-03T19:56:58.111Z,3.00
2018-11-03T19:59:25.086Z,3.00
2018-11-03T20:01:52.181Z,2.90
2018-11-03T20:04:19.175Z,2.90
2018-11-03T20:06:46.201Z,2.90
2018-11-03T20:09:16.521Z,2.90
2018-11-03T20:11:43.537Z,2.80
2018-11-03T20:14:10.703Z,2.80
2018-11-03T20:16:37.584Z,2.80
2018-11-03T20:19:04.642Z,2.70
2018-11-03T20:21:32.304Z,2.70
2018-11-03T20:23:59.338Z,2.70
2018-11-03T20:26:26.368Z,2.70
2018-11-03T20:28:53.495Z,2.60
2018-11-03T20:31:20.470Z,2.60
2018-11-03T20:36:20.910Z,2.50
2018-11-03T20:38:48.157Z,2.40
2018-11-03T20:41:21.366Z,2.40
2018-11-03T20:43:48.925Z,2.40
2018-11-03T20:46:16.154Z,2.30
2018-11-03T20:51:15.890Z,2.30
2018-11-03T20:53:42.983Z,2.30
2018-11-03T20:56:17.023Z,2.30
2018-11-03T20:58:44.001Z,2.30
2018-11-03T21:01:11.113Z,2.20
2018-11-03T21:06:11.032Z,2.10
2018-11-03T21:08:38.272Z,2.10
2018-11-03T21:13:38.563Z,2.00
2018-11-03T21:16:05.599Z,1.90
2018-11-03T21:21:05.925Z,1.90
2018-11-03T21:23:33.021Z,1.90
2018-11-03T21:26:03.705Z,2.00
2018-11-03T21:28:30.744Z,2.00
2018-11-03T21:30:57.836Z,1.90
2018-11-03T21:33:24.972Z,1.90
2018-11-03T21:35:52.100Z,1.90
2018-11-03T21:38:19.301Z,1.90
2018-11-03T21:40:46.263Z,1.90
2018-11-03T21:43:13.349Z,1.90
2018-11-03T21:45:40.447Z,1.90
2018-11-03T21:48:07.485Z,1.90
2018-11-03T21:50:34.482Z,1.90
2018-11-03T21:53:01.540Z,1.90
2018-11-03T21:55:29.277Z,1.90
2018-11-03T21:57:57.023Z,1.80
2018-11-03T22:00:24.076Z,1.80
2018-11-03T22:02:51.322Z,1.80
2018-11-03T22:05:18.451Z,1.80
2018-11-03T22:07:45.595Z,1.80
2018-11-03T22:10:12.833Z,1.80
2018-11-03T22:12:41.261Z,1.70
2018-11-03T22:15:09.333Z,1.70
2018-11-03T22:17:36.376Z,1.70
2018-11-03T22:20:03.538Z,1.60
2018-11-03T22:22:30.524Z,1.60
2018-11-03T22:24:57.597Z,1.60
2018-11-03T22:27:24.551Z,1.70
2018-11-03T22:29:55.852Z,1.60
2018-11-03T22:32:23.013Z,1.70
2018-11-03T22:35:02.858Z,1.70
2018-11-03T22:37:30.020Z,1.70
2018-11-03T22:39:57.625Z,1.70
2018-11-03T22:42:24.725Z,1.70
2018-11-03T22:44:52.502Z,1.60
2018-11-03T22:47:19.619Z,1.60
2018-11-03T22:49:46.608Z,1.60
2018-11-03T22:52:13.966Z,1.60
2018-11-03T22:54:41.198Z,1.60
2018-11-03T22:57:08.311Z,1.60
2018-11-03T22:59:35.363Z,1.60
2018-11-03T23:02:02.439Z,1.60
2018-11-03T23:04:29.430Z,1.60
2018-11-03T23:06:56.638Z,1.50
2018-11-03T23:09:23.686Z,1.60
2018-11-03T23:11:50.742Z,1.60
2018-11-03T23:14:18.275Z,1.60
2018-11-03T23:16:46.633Z,1.60
2018-11-03T23:19:27.198Z,1.60
2018-11-03T23:21:54.312Z,1.60
2018-11-03T23:24:21.409Z,1.60
2018-11-03T23:26:48.429Z,1.50
2018-11-03T23:29:15.439Z,1.50
2018-11-03T23:31:42.542Z,1.50
2018-11-03T23:34:09.545Z,1.50
2018-11-03T23:36:36.532Z,1.50
2018-11-03T23:39:05.746Z,1.40
2018-11-03T23:41:32.775Z,1.40
2018-11-03T23:43:59.777Z,1.30
2018-11-03T23:46:28.054Z,1.30
2018-11-03T23:48:55.152Z,1.30
2018-11-03T23:53:55.305Z,1.30
2018-11-03T23:56:22.248Z,1.30
2018-11-03T23:58:49.289Z,1.40
